createdAt,value
2017-09-28T00:02:26.241Z,12.00
2017-09-28T00:04:54.097Z,12.00
2017-09-28T00:07:22.044Z,12.00
2017-09-28T00:09:49.695Z,12.00
2017-09-28T00:12:17.436Z,12.00
2017-09-28T00:14:45.124Z,12.00
2017-09-28T00:17:12.803Z,12.00
2017-09-28T00:19:40.575Z,12.00
2017-09-28T00:22:08.248Z,12.00
2017-09-28T00:24:36.314Z,11.90
2017-09-28T00:27:04.227Z,11.90
2017-09-28T00:29:31.906Z,11.80
2017-09-28T00:32:00.131Z,11.60
2017-09-28T00:34:27.918Z,11.60
2017-09-28T00:36:56.139Z,11.60
2017-09-28T00:39:23.990Z,11.60
2017-09-28T00:41:51.840Z,11.70
2017-09-28T00:44:19.693Z,11.70
2017-09-28T00:46:47.394Z,11.70
2017-09-28T00:49:15.286Z,11.60
2017-09-28T00:51:42.947Z,11.60
2017-09-28T00:54:10.652Z,11.60
2017-09-28T00:56:38.375Z,11.60
2017-09-28T00:59:06.172Z,11.60
2017-09-28T01:01:33.862Z,11.50
2017-09-28T01:04:01.667Z,11.40
2017-09-28T01:06:29.356Z,11.40
2017-09-28T01:08:57.086Z,11.30
2017-09-28T01:11:25.287Z,11.20
2017-09-28T01:13:53.066Z,11.30
2017-09-28T01:16:20.815Z,11.30
2017-09-28T01:18:48.619Z,11.40
2017-09-28T01:21:16.411Z,11.40
2017-09-28T01:23:44.173Z,11.40
2017-09-28T01:26:11.991Z,11.40
2017-09-28T01:28:39.755Z,11.40
2017-09-28T01:31:07.490Z,11.30
2017-09-28T01:33:35.288Z,11.20
2017-09-28T01:36:03.099Z,11.10
2017-09-28T01:38:30.843Z,11.10
2017-09-28T01:40:58.695Z,11.10
2017-09-28T01:43:26.347Z,11.10
2017-09-28T01:45:54.090Z,11.00
2017-09-28T01:48:21.905Z,10.90
2017-09-28T01:50:49.595Z,10.80
2017-09-28T01:53:17.333Z,10.90
2017-09-28T01:55:45.182Z,10.90
2017-09-28T01:58:13.105Z,10.80
2017-09-28T02:00:40.816Z,10.70
2017-09-28T02:03:08.538Z,10.70
2017-09-28T02:05:36.273Z,10.60
2017-09-28T02:08:03.986Z,10.50
2017-09-28T02:10:31.767Z,10.60
2017-09-28T02:12:59.516Z,10.70
2017-09-28T02:15:27.262Z,10.70
2017-09-28T02:17:55.114Z,10.80
2017-09-28T02:20:22.826Z,10.70
2017-09-28T02:22:50.608Z,10.70
2017-09-28T02:25:18.526Z,10.70
2017-09-28T02:27:46.274Z,10.60
2017-09-28T02:30:14.054Z,10.50
2017-09-28T02:32:41.802Z,10.50
2017-09-28T02:35:09.475Z,10.50
2017-09-28T02:37:37.618Z,10.50
2017-09-28T02:40:05.452Z,10.50
2017-09-28T02:42:33.200Z,10.50
2017-09-28T02:45:00.848Z,10.50
2017-09-28T02:47:28.596Z,10.30
2017-09-28T02:49:56.458Z,10.30
2017-09-28T02:52:24.191Z,10.30
2017-09-28T02:54:52.007Z,10.40
2017-09-28T02:57:19.686Z,10.40
2017-09-28T02:59:47.336Z,10.40
2017-09-28T03:02:15.043Z,10.40
2017-09-28T03:04:42.686Z,10.50
2017-09-28T03:07:10.367Z,10.50
2017-09-28T03:09:38.123Z,10.50
2017-09-28T03:12:05.772Z,10.50
2017-09-28T03:14:33.411Z,10.50
2017-09-28T03:17:01.118Z,10.60
2017-09-28T03:19:28.795Z,10.60
2017-09-28T03:21:56.431Z,10.50
2017-09-28T03:24:24.143Z,10.50
2017-09-28T03:26:51.819Z,10.50
2017-09-28T03:29:19.479Z,10.50
2017-09-28T03:31:47.162Z,10.50
2017-09-28T03:34:15.284Z,10.50
2017-09-28T03:36:43.029Z,10.50
2017-09-28T03:39:10.776Z,10.40
2017-09-28T03:41:38.523Z,10.30
2017-09-28T03:44:06.164Z,10.10
2017-09-28T03:46:34.007Z,10.10
2017-09-28T03:49:01.666Z,10.10
2017-09-28T03:51:29.335Z,10.10
2017-09-28T03:53:57.565Z,10.20
2017-09-28T03:56:25.316Z,10.20
2017-09-28T03:58:52.970Z,10.30
2017-09-28T04:01:20.671Z,10.30
2017-09-28T04:03:48.353Z,10.20
2017-09-28T04:06:16.002Z,10.30
2017-09-28T04:08:43.706Z,10.20
2017-09-28T04:11:11.383Z,10.00
2017-09-28T04:13:39.043Z,9.80
2017-09-28T04:16:06.866Z,9.50
2017-09-28T04:18:34.528Z,9.40
2017-09-28T04:21:02.276Z,9.40
2017-09-28T04:23:30.330Z,9.50
2017-09-28T04:25:58.077Z,9.60
2017-09-28T04:28:25.827Z,9.60
2017-09-28T04:30:53.554Z,9.70
2017-09-28T04:33:21.322Z,9.70
2017-09-28T04:35:49.069Z,9.80
2017-09-28T04:38:16.816Z,9.80
2017-09-28T04:40:44.471Z,9.70
2017-09-28T04:43:12.691Z,9.60
2017-09-28T04:45:40.569Z,9.60
2017-09-28T04:48:08.223Z,9.70
2017-09-28T04:50:35.961Z,9.70
2017-09-28T04:53:03.679Z,9.60
2017-09-28T04:55:31.353Z,9.60
2017-09-28T04:57:59.003Z,9.60
2017-09-28T05:00:26.711Z,9.50
2017-09-28T05:02:54.415Z,9.60
2017-09-28T05:05:22.553Z,9.60
2017-09-28T05:07:50.281Z,9.60
2017-09-28T05:10:18.044Z,9.70
2017-09-28T05:12:45.699Z,9.70
2017-09-28T05:15:13.436Z,9.70
2017-09-28T05:17:41.183Z,9.70
2017-09-28T05:20:08.931Z,9.70
2017-09-28T05:22:36.636Z,9.70
2017-09-28T05:25:04.322Z,9.70
2017-09-28T05:27:32.069Z,9.90
2017-09-28T05:29:59.921Z,10.00
2017-09-28T05:32:27.666Z,10.00
2017-09-28T05:34:55.417Z,9.90
2017-09-28T05:37:23.139Z,9.90
2017-09-28T05:39:50.813Z,10.00
2017-09-28T05:42:18.555Z,10.10
2017-09-28T05:44:46.400Z,10.20
2017-09-28T05:47:14.062Z,10.30
2017-09-28T05:49:41.716Z,10.50
2017-09-28T05:52:10.280Z,10.80
2017-09-28T05:54:38.340Z,11.00
2017-09-28T05:57:06.415Z,11.20
2017-09-28T05:59:34.198Z,11.20
2017-09-28T06:02:01.923Z,11.40
2017-09-28T06:04:29.631Z,11.60
2017-09-28T06:06:57.466Z,11.80
2017-09-28T06:09:25.213Z,12.00
2017-09-28T06:11:52.867Z,12.30
2017-09-28T06:14:20.575Z,12.60
2017-09-28T06:16:48.224Z,12.80
2017-09-28T06:19:15.880Z,13.00
2017-09-28T06:21:43.731Z,13.20
2017-09-28T06:24:11.395Z,13.50
2017-09-28T06:26:39.091Z,13.60
2017-09-28T06:29:06.822Z,13.90
2017-09-28T06:31:34.475Z,14.10
2017-09-28T06:34:02.127Z,14.30
2017-09-28T06:36:30.088Z,14.60
2017-09-28T06:38:57.767Z,14.90
2017-09-28T06:41:25.423Z,15.10
2017-09-28T06:43:53.138Z,15.10
2017-09-28T06:46:20.812Z,15.30
2017-09-28T06:48:48.459Z,15.50
2017-09-28T06:51:16.167Z,15.50
2017-09-28T06:53:43.810Z,15.50
2017-09-28T06:56:11.490Z,15.50
2017-09-28T06:58:39.332Z,15.60
2017-09-28T07:01:07.085Z,15.60
2017-09-28T07:03:34.739Z,15.70
2017-09-28T07:06:02.478Z,15.80
2017-09-28T07:08:30.176Z,15.70
2017-09-28T07:10:57.827Z,15.90
2017-09-28T07:13:25.531Z,15.70
2017-09-28T07:15:53.187Z,16.00
2017-09-28T07:18:21.235Z,16.30
2017-09-28T07:20:48.980Z,16.30
2017-09-28T07:23:16.641Z,16.60
2017-09-28T07:25:44.765Z,17.10
2017-09-28T07:28:12.513Z,17.10
2017-09-28T07:30:40.196Z,17.20
2017-09-28T07:33:07.879Z,17.40
2017-09-28T07:35:35.650Z,17.80
2017-09-28T07:38:03.398Z,18.00
2017-09-28T07:40:31.043Z,18.20
2017-09-28T07:42:58.746Z,18.40
2017-09-28T07:45:26.399Z,18.30
2017-09-28T07:47:54.038Z,18.30
2017-09-28T07:50:21.830Z,18.20
2017-09-28T07:52:49.479Z,18.40
2017-09-28T07:55:17.133Z,18.50
2017-09-28T07:57:44.958Z,18.70
2017-09-28T08:00:12.607Z,18.70
2017-09-28T08:02:40.260Z,18.80
2017-09-28T08:05:08.006Z,18.80
2017-09-28T08:07:35.660Z,19.00
2017-09-28T08:10:03.399Z,19.10
2017-09-28T08:12:31.143Z,18.90
2017-09-28T08:14:58.792Z,18.80
2017-09-28T08:17:26.452Z,18.70
2017-09-28T08:19:54.184Z,18.60
2017-09-28T08:22:21.855Z,18.50
2017-09-28T08:24:49.531Z,18.50
2017-09-28T08:27:17.322Z,18.70
2017-09-28T08:29:45.047Z,18.80
2017-09-28T08:32:12.712Z,18.70
2017-09-28T08:34:40.503Z,18.60
2017-09-28T08:37:08.170Z,18.70
2017-09-28T08:39:35.863Z,18.60
2017-09-28T08:42:03.604Z,18.70
2017-09-28T08:44:31.341Z,18.90
2017-09-28T08:46:59.095Z,19.00
2017-09-28T08:49:26.799Z,19.00
2017-09-28T08:51:54.447Z,19.00
2017-09-28T08:54:22.099Z,18.90
2017-09-28T08:56:49.882Z,18.90
2017-09-28T08:59:17.531Z,19.00
2017-09-28T09:01:45.275Z,18.90
2017-09-28T09:04:12.968Z,18.70
2017-09-28T09:06:40.665Z,19.00
2017-09-28T09:09:08.330Z,19.20
2017-09-28T09:11:36.028Z,19.20
2017-09-28T09:14:03.689Z,19.10
2017-09-28T09:16:31.349Z,19.00
2017-09-28T09:18:59.094Z,19.20
2017-09-28T09:21:26.841Z,19.40
2017-09-28T09:23:54.591Z,19.40
2017-09-28T09:26:22.299Z,19.30
2017-09-28T09:28:49.944Z,19.50
2017-09-28T09:31:17.630Z,19.70
2017-09-28T09:33:45.326Z,19.80
2017-09-28T09:36:13.004Z,19.90
2017-09-28T09:38:40.650Z,19.80
2017-09-28T09:41:08.344Z,19.90
2017-09-28T09:43:36.435Z,19.90
2017-09-28T09:46:04.113Z,19.90
2017-09-28T09:48:31.802Z,19.90
2017-09-28T09:50:59.495Z,19.90
2017-09-28T09:53:27.250Z,19.80
2017-09-28T09:55:55.000Z,19.80
2017-09-28T09:58:22.648Z,19.60
2017-09-28T10:00:50.394Z,19.60
2017-09-28T10:03:18.139Z,19.70
2017-09-28T10:05:45.818Z,19.60
2017-09-28T10:08:23.387Z,20.00
2017-09-28T10:10:54.490Z,20.00
2017-09-28T10:13:23.361Z,20.00
2017-09-28T10:16:00.467Z,20.00
2017-09-28T10:18:28.611Z,20.20
2017-09-28T10:20:56.737Z,20.20
2017-09-28T10:23:24.388Z,20.20
2017-09-28T10:25:52.132Z,20.40
2017-09-28T10:28:19.776Z,20.50
2017-09-28T10:30:47.422Z,20.50
2017-09-28T10:33:15.184Z,20.50
2017-09-28T10:35:42.916Z,20.60
2017-09-28T10:38:10.662Z,20.80
2017-09-28T10:40:38.410Z,20.80
2017-09-28T10:43:06.056Z,20.90
2017-09-28T10:45:33.731Z,20.90
2017-09-28T10:48:01.836Z,20.90
2017-09-28T10:50:29.500Z,21.00
2017-09-28T10:52:57.249Z,21.10
2017-09-28T10:55:24.998Z,21.10
2017-09-28T10:57:52.746Z,21.10
2017-09-28T11:00:20.412Z,21.10
2017-09-28T11:02:48.119Z,21.10
2017-09-28T11:05:15.782Z,21.20
2017-09-28T11:07:43.529Z,21.30
2017-09-28T11:10:11.234Z,21.30
2017-09-28T11:12:39.023Z,21.10
2017-09-28T11:15:06.695Z,21.20
2017-09-28T11:17:35.070Z,21.10
2017-09-28T11:20:03.288Z,21.10
2017-09-28T11:22:31.036Z,21.10
2017-09-28T11:24:58.815Z,21.20
2017-09-28T11:27:26.855Z,21.40
2017-09-28T11:29:54.502Z,21.40
2017-09-28T11:32:22.437Z,21.50
2017-09-28T11:34:50.185Z,21.50
2017-09-28T11:37:17.836Z,21.60
2017-09-28T11:39:45.667Z,21.60
2017-09-28T11:42:13.324Z,21.60
2017-09-28T11:44:40.971Z,21.80
2017-09-28T11:47:08.716Z,21.90
2017-09-28T11:49:36.399Z,22.00
2017-09-28T11:52:04.435Z,22.00
2017-09-28T11:54:32.123Z,22.00
2017-09-28T11:56:59.807Z,21.90
2017-09-28T11:59:27.554Z,21.80
2017-09-28T12:01:55.408Z,21.80
2017-09-28T12:04:23.153Z,21.90
2017-09-28T12:06:50.795Z,21.80
2017-09-28T12:09:18.546Z,21.70
2017-09-28T12:11:46.293Z,21.70
2017-09-28T12:14:14.039Z,21.60
2017-09-28T12:16:41.889Z,21.70
2017-09-28T12:19:09.536Z,21.80
2017-09-28T12:21:37.191Z,21.70
2017-09-28T12:24:04.904Z,21.50
2017-09-28T12:26:32.570Z,21.50
2017-09-28T12:29:00.320Z,21.50
2017-09-28T12:31:28.068Z,21.50
2017-09-28T12:33:55.815Z,21.50
2017-09-28T12:36:23.471Z,21.60
2017-09-28T12:38:51.207Z,21.60
2017-09-28T12:41:18.851Z,21.50
2017-09-28T12:43:46.599Z,21.50
2017-09-28T12:46:14.307Z,21.60
2017-09-28T12:48:41.971Z,21.50
2017-09-28T12:51:09.634Z,21.40
2017-09-28T12:53:37.431Z,21.40
2017-09-28T12:56:05.076Z,21.40
2017-09-28T12:58:32.734Z,21.40
2017-09-28T13:01:00.521Z,21.50
2017-09-28T13:03:28.187Z,21.30
2017-09-28T13:05:55.831Z,21.20
2017-09-28T13:08:24.483Z,21.30
2017-09-28T13:10:52.231Z,21.50
2017-09-28T13:13:19.879Z,21.60
2017-09-28T13:15:47.567Z,21.70
2017-09-28T13:18:15.227Z,21.80
2017-09-28T13:20:42.870Z,21.80
2017-09-28T13:23:10.659Z,21.70
2017-09-28T13:25:38.303Z,21.60
2017-09-28T13:28:05.943Z,21.60
2017-09-28T13:30:33.695Z,21.50
2017-09-28T13:33:01.443Z,21.10
2017-09-28T13:35:29.190Z,21.10
2017-09-28T13:37:56.884Z,21.10
2017-09-28T13:40:24.535Z,21.20
2017-09-28T13:42:52.183Z,21.30
2017-09-28T13:45:19.976Z,21.20
2017-09-28T13:47:47.727Z,21.20
2017-09-28T13:50:15.470Z,21.20
2017-09-28T13:52:43.321Z,21.30
2017-09-28T13:55:11.088Z,21.40
2017-09-28T13:57:38.816Z,21.60
2017-09-28T14:00:06.542Z,21.50
2017-09-28T14:02:34.187Z,21.40
2017-09-28T14:05:01.852Z,21.30
2017-09-28T14:07:29.568Z,21.30
2017-09-28T14:09:57.223Z,21.40
2017-09-28T14:12:24.994Z,21.60
2017-09-28T14:14:52.843Z,21.60
2017-09-28T14:17:20.591Z,21.60
2017-09-28T14:19:48.243Z,21.50
2017-09-28T14:22:15.983Z,21.30
2017-09-28T14:24:43.731Z,21.20
2017-09-28T14:27:11.374Z,21.30
2017-09-28T14:29:39.151Z,21.40
2017-09-28T14:32:07.207Z,21.50
2017-09-28T14:34:35.248Z,21.40
2017-09-28T14:37:02.955Z,21.40
2017-09-28T14:39:30.607Z,21.40
2017-09-28T14:41:58.267Z,21.30
2017-09-28T14:44:26.056Z,21.40
2017-09-28T14:46:54.175Z,21.50
2017-09-28T14:49:21.828Z,21.50
2017-09-28T14:51:49.575Z,21.60
2017-09-28T14:54:17.314Z,21.70
2017-09-28T14:56:44.952Z,21.90
2017-09-28T14:59:12.706Z,22.00
2017-09-28T15:01:40.351Z,22.10
2017-09-28T15:04:08.098Z,22.10
2017-09-28T15:06:35.949Z,22.10
2017-09-28T15:09:03.677Z,22.00
2017-09-28T15:11:31.338Z,21.70
2017-09-28T15:13:59.188Z,21.60
2017-09-28T15:16:27.033Z,21.40
2017-09-28T15:18:54.684Z,21.30
2017-09-28T15:21:22.546Z,21.20
2017-09-28T15:23:50.282Z,21.20
2017-09-28T15:26:17.928Z,21.00
2017-09-28T15:28:45.730Z,21.00
2017-09-28T15:31:13.497Z,20.80
2017-09-28T15:33:41.144Z,20.70
2017-09-28T15:36:08.915Z,20.80
2017-09-28T15:38:36.567Z,20.80
2017-09-28T15:41:04.308Z,20.70
2017-09-28T15:43:32.159Z,20.70
2017-09-28T15:45:59.815Z,20.70
2017-09-28T15:48:27.549Z,20.50
2017-09-28T15:50:55.247Z,20.20
2017-09-28T15:53:22.888Z,20.00
2017-09-28T15:55:50.592Z,19.90
2017-09-28T15:58:18.422Z,19.80
2017-09-28T16:00:46.063Z,19.80
2017-09-28T16:03:13.830Z,19.70
2017-09-28T16:05:41.632Z,19.70
2017-09-28T16:08:09.284Z,19.70
2017-09-28T16:10:36.924Z,19.70
2017-09-28T16:13:04.717Z,19.60
2017-09-28T16:15:32.370Z,19.40
2017-09-28T16:18:00.020Z,19.30
2017-09-28T16:20:28.028Z,19.30
2017-09-28T16:22:55.614Z,19.20
2017-09-28T16:25:23.353Z,19.10
2017-09-28T16:27:51.047Z,19.00
2017-09-28T16:30:18.745Z,18.90
2017-09-28T16:32:46.394Z,18.90
2017-09-28T16:35:14.120Z,18.80
2017-09-28T16:37:41.780Z,18.80
2017-09-28T16:40:09.429Z,18.70
2017-09-28T16:42:37.207Z,18.70
2017-09-28T16:45:05.329Z,18.60
2017-09-28T16:47:33.076Z,18.60
2017-09-28T16:50:00.771Z,18.50
2017-09-28T16:52:28.571Z,18.50
2017-09-28T16:54:56.266Z,18.40
2017-09-28T16:57:24.075Z,18.30
2017-09-28T16:59:51.731Z,18.30
2017-09-28T17:02:19.460Z,18.20
2017-09-28T17:04:47.162Z,18.10
2017-09-28T17:07:14.852Z,18.10
2017-09-28T17:09:42.508Z,18.00
2017-09-28T17:12:10.243Z,18.00
2017-09-28T17:14:37.989Z,17.90
2017-09-28T17:17:05.642Z,17.80
2017-09-28T17:19:33.382Z,17.80
2017-09-28T17:22:01.130Z,17.70
2017-09-28T17:24:28.876Z,17.70
2017-09-28T17:26:56.596Z,17.60
2017-09-28T17:29:24.304Z,17.50
2017-09-28T17:31:52.349Z,17.40
2017-09-28T17:34:20.119Z,17.40
2017-09-28T17:36:47.820Z,17.30
2017-09-28T17:39:15.567Z,17.20
2017-09-28T17:41:43.307Z,17.10
2017-09-28T17:44:11.062Z,17.00
2017-09-28T17:46:38.716Z,17.00
2017-09-28T17:49:06.453Z,16.90
2017-09-28T17:51:34.200Z,16.80
2017-09-28T17:54:01.855Z,16.70
2017-09-28T17:56:29.669Z,16.60
2017-09-28T17:58:57.322Z,16.60
2017-09-28T18:01:24.987Z,16.60
2017-09-28T18:03:53.037Z,16.60
2017-09-28T18:06:20.789Z,16.50
2017-09-28T18:08:48.536Z,16.50
2017-09-28T18:11:16.426Z,16.50
2017-09-28T18:13:44.144Z,16.50
2017-09-28T18:16:11.882Z,16.40
2017-09-28T18:18:39.635Z,16.30
2017-09-28T18:21:07.340Z,16.30
2017-09-28T18:23:34.991Z,16.30
2017-09-28T18:26:02.851Z,16.30
2017-09-28T18:28:30.512Z,16.20
2017-09-28T18:30:58.926Z,16.20
2017-09-28T18:33:27.646Z,16.20
2017-09-28T18:35:55.401Z,16.10
2017-09-28T18:38:23.055Z,16.10
2017-09-28T18:40:50.793Z,16.10
2017-09-28T18:43:18.536Z,16.00
2017-09-28T18:45:46.283Z,16.00
2017-09-28T18:48:14.560Z,16.00
2017-09-28T18:50:42.683Z,15.90
2017-09-28T18:53:11.474Z,15.90
2017-09-28T18:55:39.216Z,15.90
2017-09-28T18:58:06.875Z,15.80
2017-09-28T19:00:34.609Z,15.80
2017-09-28T19:03:02.367Z,15.80
2017-09-28T19:05:30.072Z,15.70
2017-09-28T19:07:57.851Z,15.60
2017-09-28T19:10:25.992Z,15.50
2017-09-28T19:12:53.654Z,15.50
2017-09-28T19:15:21.402Z,15.50
2017-09-28T19:17:49.116Z,15.40
2017-09-28T19:20:16.788Z,15.40
2017-09-28T19:22:44.541Z,15.40
2017-09-28T19:25:12.342Z,15.30
2017-09-28T19:27:40.036Z,15.30
2017-09-28T19:30:07.818Z,15.20
2017-09-28T19:32:35.930Z,15.10
2017-09-28T19:35:03.583Z,15.10
2017-09-28T19:37:31.331Z,15.10
2017-09-28T19:39:59.052Z,15.00
2017-09-28T19:42:26.724Z,15.00
2017-09-28T19:44:54.379Z,14.90
2017-09-28T19:47:22.187Z,14.90
2017-09-28T19:49:49.851Z,14.80
2017-09-28T19:52:17.520Z,14.70
2017-09-28T19:54:45.363Z,14.50
2017-09-28T19:57:13.108Z,14.60
2017-09-28T19:59:40.760Z,14.60
2017-09-28T20:02:08.806Z,14.70
2017-09-28T20:04:36.553Z,14.70
2017-09-28T20:07:04.300Z,14.80
2017-09-28T20:09:32.003Z,14.80
2017-09-28T20:11:59.691Z,14.80
2017-09-28T20:14:27.439Z,14.80
2017-09-28T20:16:55.294Z,14.70
2017-09-28T20:19:23.039Z,14.70
2017-09-28T20:21:50.700Z,14.70
2017-09-28T20:24:18.528Z,14.70
2017-09-28T20:26:46.191Z,14.70
2017-09-28T20:29:13.848Z,14.60
2017-09-28T20:31:42.071Z,14.70
2017-09-28T20:34:09.829Z,14.70
2017-09-28T20:36:37.576Z,14.70
2017-09-28T20:39:05.516Z,14.60
2017-09-28T20:41:33.187Z,14.60
2017-09-28T20:44:00.847Z,14.60
2017-09-28T20:46:28.571Z,14.60
2017-09-28T20:48:56.244Z,14.60
2017-09-28T20:51:24.472Z,14.50
2017-09-28T20:53:52.251Z,14.50
2017-09-28T20:56:20.376Z,14.40
2017-09-28T20:58:48.064Z,14.40
2017-09-28T21:01:15.783Z,14.40
2017-09-28T21:03:43.515Z,14.40
2017-09-28T21:06:11.172Z,14.40
2017-09-28T21:08:38.988Z,14.40
2017-09-28T21:11:06.756Z,14.40
2017-09-28T21:13:34.504Z,14.40
2017-09-28T21:16:02.211Z,14.40
2017-09-28T21:18:29.894Z,14.20
2017-09-28T21:20:57.600Z,14.20
2017-09-28T21:23:25.320Z,14.10
2017-09-28T21:25:53.375Z,14.10
2017-09-28T21:28:21.502Z,14.10
2017-09-28T21:30:49.204Z,14.10
2017-09-28T21:33:16.865Z,13.90
2017-09-28T21:35:44.539Z,13.90
2017-09-28T21:38:12.435Z,13.80
2017-09-28T21:40:40.134Z,13.70
2017-09-28T21:43:07.792Z,13.70
2017-09-28T21:45:35.547Z,13.70
2017-09-28T21:48:03.273Z,13.60
2017-09-28T21:50:30.923Z,13.60
2017-09-28T21:52:58.766Z,13.60
2017-09-28T21:55:26.427Z,13.60
2017-09-28T21:57:54.080Z,13.60
2017-09-28T22:00:21.912Z,13.50
2017-09-28T22:02:49.584Z,13.50
2017-09-28T22:05:17.642Z,13.60
2017-09-28T22:07:45.870Z,13.50
2017-09-28T22:10:13.617Z,13.60
2017-09-28T22:12:41.364Z,13.50
2017-09-28T22:15:09.158Z,13.50
2017-09-28T22:17:36.858Z,13.50
2017-09-28T22:20:04.560Z,13.50
2017-09-28T22:22:32.324Z,13.60
2017-09-28T22:24:59.996Z,13.60
2017-09-28T22:27:27.652Z,13.50
2017-09-28T22:29:55.355Z,13.50
2017-09-28T22:32:23.014Z,13.50
2017-09-28T22:34:50.676Z,13.50
2017-09-28T22:37:18.520Z,13.40
2017-09-28T22:39:46.176Z,13.40
2017-09-28T22:42:13.831Z,13.40
2017-09-28T22:44:41.592Z,13.40
2017-09-28T22:47:09.644Z,13.30
2017-09-28T22:49:37.778Z,13.30
2017-09-28T22:52:05.495Z,13.30
2017-09-28T22:54:33.153Z,13.40
2017-09-28T22:57:00.808Z,13.40
2017-09-28T22:59:28.516Z,13.40
2017-09-28T23:01:56.171Z,13.40
2017-09-28T23:04:24.368Z,13.40
2017-09-28T23:06:52.319Z,13.30
2017-09-28T23:09:20.066Z,13.20
2017-09-28T23:11:47.813Z,13.20
2017-09-28T23:14:15.527Z,13.20
2017-09-28T23:16:44.107Z,13.20
2017-09-28T23:19:11.771Z,13.10
2017-09-28T23:21:39.575Z,13.00
2017-09-28T23:24:07.228Z,12.90
2017-09-28T23:26:34.911Z,12.90
2017-09-28T23:29:02.627Z,12.80
2017-09-28T23:31:30.270Z,12.70
2017-09-28T23:33:57.948Z,12.70
2017-09-28T23:36:25.647Z,12.60
2017-09-28T23:38:53.343Z,12.50
2017-09-28T23:41:21.089Z,12.50
2017-09-28T23:43:48.780Z,12.50
2017-09-28T23:46:16.481Z,12.50
2017-09-28T23:48:44.136Z,12.50
2017-09-28T23:51:11.976Z,12.40
2017-09-28T23:53:39.724Z,12.40
2017-09-28T23:56:07.371Z,12.40
2017-09-28T23:58:35.116Z,12.30
